Time;durP1;ratioP1;P1;durP2;ratioP2;P2;SDS_P1;SDS_P2;PMS_P1;PMS_P2;Temp;Humidity;BMP_temperature;BMP_pressure;BME280_temperature;BME280_humidity;BME280_pressure;Samples;Min_cycle;Max_cycle;Signal;HPM_P1;HPM_P2
2021/08/21 00:00:20;;;;;;;2.67;2.58;;;21.10;70.90;;;;;;5066327;28;20266;-80
2021/08/21 00:02:46;;;;;;;2.35;2.25;;;21.10;70.70;;;;;;5059040;28;20221;-77
2021/08/21 00:05:12;;;;;;;2.30;2.20;;;21.10;70.30;;;;;;5068404;28;20570;-80
2021/08/21 00:07:39;;;;;;;2.28;2.13;;;21.00;70.50;;;;;;5066448;28;20800;-80
2021/08/21 00:10:08;;;;;;;2.60;2.47;;;21.00;70.10;;;;;;5068765;28;20183;-80
2021/08/21 00:12:33;;;;;;;2.80;2.70;;;21.00;70.20;;;;;;5064287;28;20595;-79
2021/08/21 00:14:59;;;;;;;2.38;2.35;;;21.00;70.50;;;;;;5076428;28;20189;-79
2021/08/21 00:17:26;;;;;;;2.72;2.63;;;21.00;70.60;;;;;;5066851;28;20299;-79
2021/08/21 00:19:52;;;;;;;2.60;2.50;;;21.00;71.10;;;;;;5070971;28;20186;-79
2021/08/21 00:22:17;;;;;;;2.55;2.35;;;21.00;72.00;;;;;;5064607;28;20682;-79
2021/08/21 00:24:44;;;;;;;6.90;2.90;;;20.90;71.90;;;;;;5073293;28;20212;-79
2021/08/21 00:27:09;;;;;;;3.70;3.47;;;20.90;71.70;;;;;;5067881;28;20191;-79
2021/08/21 00:29:35;;;;;;;3.00;2.80;;;20.90;71.80;;;;;;5068101;28;20187;-78
2021/08/21 00:32:01;;;;;;;5.40;2.95;;;20.80;72.40;;;;;;5061778;28;20183;-79
2021/08/21 00:34:28;;;;;;;2.58;2.58;;;20.80;72.10;;;;;;5066106;28;20261;-79
2021/08/21 00:36:53;;;;;;;5.38;3.13;;;20.70;72.20;;;;;;5075631;28;20704;-79
2021/08/21 00:39:20;;;;;;;3.25;2.95;;;20.70;72.10;;;;;;5069605;28;20228;-79
2021/08/21 00:41:46;;;;;;;4.28;3.75;;;20.60;72.20;;;;;;5066604;28;20589;-79
2021/08/21 00:44:12;;;;;;;3.88;3.10;;;20.60;72.30;;;;;;5069393;28;20175;-79
2021/08/21 00:47:15;;;;;;;3.03;2.92;;;20.50;73.50;;;;;;5069045;28;20193;-80
2021/08/21 00:49:45;;;;;;;3.38;3.08;;;20.40;73.30;;;;;;5070404;28;20202;-79
2021/08/21 00:52:17;;;;;;;2.67;2.58;;;20.30;72.60;;;;;;5072800;28;20638;-79
2021/08/21 00:54:43;;;;;;;2.63;2.53;;;20.20;72.40;;;;;;5071932;28;20668;-79
2021/08/21 00:57:13;;;;;;;3.40;3.22;;;20.20;72.70;;;;;;5067959;28;20214;-79
2021/08/21 00:59:40;;;;;;;3.13;2.92;;;20.10;73.30;;;;;;5070468;28;20182;-79
2021/08/21 01:02:07;;;;;;;2.85;2.70;;;20.00;73.50;;;;;;5068539;28;20511;-79
2021/08/21 01:04:34;;;;;;;3.50;3.30;;;20.00;72.60;;;;;;5066586;28;21633;-79
2021/08/21 01:07:07;;;;;;;4.22;3.10;;;19.90;72.90;;;;;;5069094;28;20190;-79
2021/08/21 01:09:36;;;;;;;2.67;2.58;;;19.80;73.20;;;;;;5067802;28;20257;-79
2021/08/21 01:12:05;;;;;;;4.15;2.53;;;19.80;73.40;;;;;;5067950;28;20180;-79
2021/08/21 01:14:31;;;;;;;3.28;3.08;;;19.80;73.60;;;;;;5065795;28;20191;-79
2021/08/21 01:16:57;;;;;;;2.65;2.55;;;19.70;73.70;;;;;;5070910;28;20238;-79
2021/08/21 01:19:25;;;;;;;3.38;3.17;;;19.70;73.70;;;;;;5066314;28;20832;-79
2021/08/21 01:21:51;;;;;;;2.88;2.75;;;19.70;73.60;;;;;;5069846;28;20248;-79
2021/08/21 01:24:16;;;;;;;2.78;2.67;;;19.70;73.70;;;;;;5076217;28;20665;-79
2021/08/21 01:26:57;;;;;;;3.28;3.13;;;19.70;73.90;;;;;;5072948;28;20356;-79
2021/08/21 01:29:23;;;;;;;2.88;2.67;;;19.70;73.90;;;;;;5067550;28;20229;-78
2021/08/21 01:31:50;;;;;;;2.83;2.72;;;19.70;74.50;;;;;;5067229;28;20188;-79
2021/08/21 01:34:16;;;;;;;4.68;3.22;;;19.60;74.10;;;;;;5059441;28;21159;-79
2021/08/21 01:36:44;;;;;;;3.40;3.10;;;19.60;73.90;;;;;;5069344;28;20317;-79
2021/08/21 01:39:12;;;;;;;2.40;2.20;;;19.60;73.80;;;;;;5063168;28;20179;-80
2021/08/21 01:41:40;;;;;;;2.97;2.78;;;19.70;73.90;;;;;;5062209;28;20196;-80
2021/08/21 01:44:14;;;;;;;2.75;2.63;;;19.70;73.90;;;;;;5065093;28;20190;-79
2021/08/21 01:46:41;;;;;;;2.92;2.75;;;19.70;73.80;;;;;;5067890;28;20207;-78
2021/08/21 01:49:09;;;;;;;2.97;2.78;;;19.70;73.60;;;;;;5071481;28;20181;-78
2021/08/21 01:51:42;;;;;;;3.47;3.20;;;19.70;73.70;;;;;;5066848;28;21568;-78
2021/08/21 01:54:18;;;;;;;3.17;3.03;;;19.70;73.80;;;;;;5069439;28;20179;-78
2021/08/21 01:56:50;;;;;;;3.08;2.88;;;19.70;73.60;;;;;;5069288;28;20206;-79
2021/08/21 01:59:24;;;;;;;3.25;3.05;;;19.70;74.00;;;;;;5061720;28;20205;-79
2021/08/21 02:01:51;;;;;;;2.90;2.63;;;19.70;74.00;;;;;;5066780;28;20298;-79
2021/08/21 02:04:17;;;;;;;3.30;3.00;;;19.70;73.90;;;;;;5061292;28;20180;-78
2021/08/21 02:06:43;;;;;;;2.95;2.85;;;19.70;74.10;;;;;;5065643;28;20183;-79
2021/08/21 02:09:11;;;;;;;2.95;2.85;;;19.60;74.60;;;;;;5068138;28;20178;-79
2021/08/21 02:11:38;;;;;;;2.55;2.45;;;19.60;74.30;;;;;;5064875;28;20183;-79
2021/08/21 02:14:04;;;;;;;3.05;2.95;;;19.60;74.40;;;;;;5067672;28;20198;-79
2021/08/21 02:16:29;;;;;;;3.30;2.30;;;19.50;74.70;;;;;;5069867;28;20221;-78
2021/08/21 02:18:55;;;;;;;3.60;3.22;;;19.50;74.90;;;;;;5068618;28;20202;-78
2021/08/21 02:21:22;;;;;;;3.03;2.85;;;19.50;74.80;;;;;;5072642;28;20206;-79
2021/08/21 02:23:48;;;;;;;3.25;2.83;;;19.50;75.00;;;;;;5067332;28;20277;-79
2021/08/21 02:26:14;;;;;;;2.78;2.60;;;19.40;75.00;;;;;;5073512;28;20612;-78
2021/08/21 02:28:40;;;;;;;3.47;2.97;;;19.40;75.30;;;;;;5061970;28;20198;-77
2021/08/21 02:31:06;;;;;;;2.75;2.65;;;19.40;75.30;;;;;;5068503;28;20202;-79
2021/08/21 02:33:32;;;;;;;3.70;3.40;;;19.40;75.70;;;;;;5061007;28;20700;-78
2021/08/21 02:35:59;;;;;;;2.97;2.88;;;19.40;75.30;;;;;;5072462;28;20286;-77
2021/08/21 02:38:24;;;;;;;2.38;2.28;;;19.30;75.50;;;;;;5069399;28;20235;-78
2021/08/21 02:40:51;;;;;;;2.45;2.35;;;19.30;75.20;;;;;;5070118;28;20202;-78
2021/08/21 02:43:16;;;;;;;2.63;2.53;;;19.30;75.20;;;;;;5063279;28;20178;-78
2021/08/21 02:45:42;;;;;;;3.38;3.10;;;19.30;75.40;;;;;;5068846;28;20186;-77
2021/08/21 02:48:08;;;;;;;3.25;3.05;;;19.30;75.60;;;;;;5063575;28;20738;-77
2021/08/21 02:50:34;;;;;;;5.70;3.38;;;19.30;75.70;;;;;;5067817;28;20183;-78
2021/08/21 02:53:00;;;;;;;3.45;3.15;;;19.30;76.20;;;;;;5065427;28;20931;-77
2021/08/21 02:55:26;;;;;;;2.72;2.53;;;19.20;75.80;;;;;;5075751;28;20885;-77
2021/08/21 02:57:52;;;;;;;3.22;2.55;;;19.20;76.10;;;;;;5063150;28;20225;-78
2021/08/21 03:00:18;;;;;;;2.88;2.78;;;19.20;75.90;;;;;;5066866;28;20179;-78
2021/08/21 03:02:44;;;;;;;2.88;2.78;;;19.20;76.00;;;;;;5061204;28;20175;-78
2021/08/21 03:05:10;;;;;;;5.03;3.47;;;19.10;76.10;;;;;;5066220;28;20563;-78
2021/08/21 03:07:35;;;;;;;2.80;2.70;;;19.10;76.30;;;;;;5061749;28;20194;-78
2021/08/21 03:10:03;;;;;;;2.70;2.50;;;19.10;76.30;;;;;;5073047;28;20666;-78
2021/08/21 03:12:30;;;;;;;3.08;2.90;;;19.10;76.10;;;;;;5060576;28;20271;-78
2021/08/21 03:14:56;;;;;;;4.53;2.80;;;19.10;76.10;;;;;;5074533;28;20190;-78
2021/08/21 03:17:21;;;;;;;11.02;2.90;;;19.00;76.40;;;;;;5072316;28;20206;-78
2021/08/21 03:19:47;;;;;;;3.38;3.17;;;19.00;76.20;;;;;;5071850;28;20264;-77
2021/08/21 03:22:13;;;;;;;3.85;3.65;;;19.00;76.70;;;;;;5068503;28;20206;-78
2021/08/21 03:24:38;;;;;;;3.22;2.83;;;19.00;76.30;;;;;;5068304;28;20183;-77
2021/08/21 03:27:04;;;;;;;3.35;3.05;;;18.90;76.90;;;;;;5061214;28;20184;-78
2021/08/21 03:29:30;;;;;;;4.53;3.50;;;18.90;76.90;;;;;;5070947;28;20233;-78
2021/08/21 03:31:55;;;;;;;3.40;3.20;;;18.90;76.90;;;;;;5066556;28;20175;-78
2021/08/21 03:34:24;;;;;;;7.70;3.67;;;18.80;77.10;;;;;;5065802;28;20274;-77
2021/08/21 03:36:51;;;;;;;3.80;3.40;;;18.80;77.60;;;;;;5067069;28;20215;-77
2021/08/21 03:39:16;;;;;;;3.30;3.10;;;18.80;77.10;;;;;;5068359;28;20589;-78
2021/08/21 03:41:42;;;;;;;3.17;3.08;;;18.80;77.00;;;;;;5056527;28;20190;-78
2021/08/21 03:44:08;;;;;;;4.00;2.92;;;18.80;77.40;;;;;;5069791;28;20287;-77
2021/08/21 03:46:34;;;;;;;3.63;3.20;;;18.80;77.30;;;;;;5069958;28;20226;-77
2021/08/21 03:49:00;;;;;;;3.47;3.25;;;18.80;77.30;;;;;;5066300;28;20581;-78
2021/08/21 03:51:25;;;;;;;2.80;2.70;;;18.80;77.10;;;;;;5068700;28;20331;-78
2021/08/21 03:53:51;;;;;;;3.28;3.13;;;18.70;77.00;;;;;;5072019;28;20186;-78
2021/08/21 03:56:17;;;;;;;3.58;2.85;;;18.70;77.30;;;;;;5068264;28;20190;-73
2021/08/21 03:58:43;;;;;;;3.08;2.88;;;18.70;77.30;;;;;;5069196;28;20187;-74
2021/08/21 04:01:09;;;;;;;3.50;3.25;;;18.70;77.10;;;;;;5067395;28;20782;-74
2021/08/21 04:03:35;;;;;;;4.13;3.10;;;18.70;77.20;;;;;;5065996;28;20178;-74
2021/08/21 04:06:01;;;;;;;3.38;2.70;;;18.70;77.90;;;;;;5072645;28;20175;-74
2021/08/21 04:08:27;;;;;;;3.30;3.03;;;18.70;77.80;;;;;;5068871;28;20193;-76
2021/08/21 04:10:53;;;;;;;3.25;3.15;;;18.70;78.10;;;;;;5072284;28;20183;-74
2021/08/21 04:13:18;;;;;;;3.00;2.80;;;18.70;78.50;;;;;;5061486;28;20191;-74
2021/08/21 04:15:44;;;;;;;3.25;2.97;;;18.70;77.80;;;;;;5073681;28;20183;-74
2021/08/21 04:18:10;;;;;;;4.00;3.38;;;18.70;78.00;;;;;;5067743;28;20651;-74
2021/08/21 04:20:36;;;;;;;3.03;2.85;;;18.60;77.80;;;;;;5066403;28;20178;-74
2021/08/21 04:23:01;;;;;;;3.55;3.25;;;18.60;77.90;;;;;;5063763;28;20179;-74
2021/08/21 04:25:27;;;;;;;3.03;2.83;;;18.60;77.90;;;;;;5079051;28;20182;-74
2021/08/21 04:27:53;;;;;;;4.30;3.22;;;18.60;78.00;;;;;;5065315;28;20190;-75
2021/08/21 04:30:19;;;;;;;3.22;3.05;;;18.60;78.00;;;;;;5077485;28;20182;-75
2021/08/21 04:32:45;;;;;;;3.90;3.53;;;18.60;78.00;;;;;;5068958;28;20189;-76
2021/08/21 04:35:11;;;;;;;3.28;3.03;;;18.60;77.90;;;;;;5069306;28;20187;-75
2021/08/21 04:37:37;;;;;;;4.35;3.20;;;18.60;77.90;;;;;;5066267;28;20280;-76
2021/08/21 04:40:05;;;;;;;3.25;3.05;;;18.60;77.90;;;;;;5069385;28;21538;-75
2021/08/21 04:42:31;;;;;;;3.33;3.22;;;18.60;77.80;;;;;;5057847;28;20175;-75
2021/08/21 04:44:59;;;;;;;3.10;3.00;;;18.60;77.90;;;;;;5077260;28;20867;-75
2021/08/21 04:47:28;;;;;;;3.65;3.35;;;18.60;77.90;;;;;;5064410;28;20191;-75
2021/08/21 04:49:55;;;;;;;3.28;3.08;;;18.70;77.90;;;;;;5069435;28;20228;-75
2021/08/21 04:52:21;;;;;;;3.42;3.22;;;18.70;77.90;;;;;;5061726;28;20189;-74
2021/08/21 04:54:48;;;;;;;4.05;3.65;;;18.70;77.90;;;;;;5072116;28;20274;-76
2021/08/21 04:57:14;;;;;;;3.78;3.47;;;18.80;77.80;;;;;;5062346;28;20305;-75
2021/08/21 04:59:39;;;;;;;3.15;2.95;;;18.80;77.60;;;;;;5065510;28;20183;-75
2021/08/21 05:02:05;;;;;;;3.22;3.03;;;18.80;77.60;;;;;;5065964;28;20215;-76
2021/08/21 05:04:31;;;;;;;4.45;2.92;;;18.90;77.70;;;;;;5062558;28;20201;-75
2021/08/21 05:06:57;;;;;;;3.83;2.55;;;18.90;77.40;;;;;;5066886;28;20183;-75
2021/08/21 05:09:22;;;;;;;3.35;3.15;;;19.00;77.20;;;;;;5065946;28;20182;-75
2021/08/21 05:11:48;;;;;;;3.40;3.10;;;19.00;77.30;;;;;;5059724;28;20188;-75
2021/08/21 05:14:15;;;;;;;4.78;2.90;;;19.10;77.40;;;;;;5065326;28;20274;-76
2021/08/21 05:16:43;;;;;;;5.30;3.47;;;19.10;77.10;;;;;;5064723;28;20601;-75
2021/08/21 05:19:22;;;;;;;6.75;3.33;;;19.20;76.90;;;;;;5064687;28;20174;-75
2021/08/21 05:21:50;;;;;;;3.38;3.00;;;19.20;76.60;;;;;;5065466;28;20190;-77
2021/08/21 05:24:17;;;;;;;3.65;2.92;;;19.20;76.40;;;;;;5067673;28;20719;-77
2021/08/21 05:26:44;;;;;;;3.97;2.92;;;19.30;76.60;;;;;;5072363;28;20274;-77
2021/08/21 05:29:13;;;;;;;2.50;2.40;;;19.30;76.40;;;;;;5068514;28;20649;-77
2021/08/21 05:31:40;;;;;;;3.38;3.17;;;19.40;76.00;;;;;;5061938;28;20182;-77
2021/08/21 05:34:10;;;;;;;4.13;2.72;;;19.40;76.10;;;;;;5066048;28;20183;-76
2021/08/21 05:36:35;;;;;;;3.58;3.38;;;19.50;76.30;;;;;;5067072;28;20550;-76
2021/08/21 05:39:01;;;;;;;3.72;3.42;;;19.40;76.30;;;;;;5063769;28;20182;-77
2021/08/21 05:41:27;;;;;;;4.05;3.38;;;19.40;77.30;;;;;;5055862;28;20828;-80
2021/08/21 05:43:53;;;;;;;3.33;3.13;;;19.40;77.00;;;;;;5056541;28;20190;-80
2021/08/21 05:46:19;;;;;;;4.90;3.85;;;19.40;77.10;;;;;;5077416;28;20183;-78
2021/08/21 05:48:45;;;;;;;4.38;3.53;;;19.40;76.50;;;;;;5062959;28;20301;-80
2021/08/21 05:51:10;;;;;;;3.47;3.28;;;19.50;76.40;;;;;;5068116;28;20183;-79
2021/08/21 05:53:36;;;;;;;3.72;3.40;;;19.60;76.40;;;;;;5065271;28;20840;-78
2021/08/21 05:56:02;;;;;;;3.90;3.67;;;19.60;76.10;;;;;;5070948;28;20205;-79
2021/08/21 05:58:28;;;;;;;3.42;3.22;;;19.70;76.10;;;;;;5069519;28;20610;-81
2021/08/21 06:00:54;;;;;;;4.15;3.72;;;19.80;76.20;;;;;;5071315;28;20583;-80
2021/08/21 06:03:19;;;;;;;3.72;3.40;;;19.80;75.80;;;;;;5064906;28;20174;-78
2021/08/21 06:05:46;;;;;;;3.63;3.40;;;19.80;76.00;;;;;;5070043;28;20193;-83
2021/08/21 06:08:11;;;;;;;3.75;3.55;;;19.80;75.90;;;;;;5067210;28;20586;-78
2021/08/21 06:10:40;;;;;;;6.10;3.40;;;19.90;75.40;;;;;;5068678;28;20186;-77
2021/08/21 06:13:06;;;;;;;2.97;2.78;;;20.00;75.00;;;;;;5062034;28;20238;-78
2021/08/21 06:15:32;;;;;;;2.83;2.67;;;20.00;75.10;;;;;;5069445;28;20228;-77
2021/08/21 06:17:57;;;;;;;2.90;2.75;;;20.10;75.10;;;;;;5065688;28;20214;-77
2021/08/21 06:20:23;;;;;;;3.00;2.80;;;20.10;74.80;;;;;;5076208;28;20612;-77
2021/08/21 06:22:49;;;;;;;3.58;2.70;;;20.20;74.90;;;;;;5072454;28;20244;-75
2021/08/21 06:25:15;;;;;;;2.58;2.47;;;20.30;75.10;;;;;;5071217;28;20657;-76
2021/08/21 06:27:40;;;;;;;2.40;2.30;;;20.40;74.80;;;;;;5069956;28;20218;-76
2021/08/21 06:30:08;;;;;;;4.03;2.70;;;20.50;74.90;;;;;;5075831;28;20239;-76
2021/08/21 06:32:34;;;;;;;2.13;2.10;;;20.60;74.50;;;;;;5067653;28;20187;-76
2021/08/21 06:34:59;;;;;;;3.22;2.45;;;20.70;73.90;;;;;;5072163;28;20193;-76
2021/08/21 06:37:25;;;;;;;2.35;2.17;;;20.70;73.60;;;;;;5064546;28;20776;-76
2021/08/21 06:39:51;;;;;;;2.00;1.85;;;20.80;73.10;;;;;;5063874;28;20189;-75
2021/08/21 06:42:16;;;;;;;2.25;2.13;;;20.90;72.80;;;;;;5053440;28;20190;-76
2021/08/21 06:44:42;;;;;;;2.30;2.20;;;21.00;72.80;;;;;;5072312;28;20753;-74
2021/08/21 06:47:08;;;;;;;2.20;2.10;;;21.10;72.80;;;;;;5063296;28;20226;-75
2021/08/21 06:49:33;;;;;;;2.72;2.63;;;21.20;72.70;;;;;;5063323;28;20587;-75
2021/08/21 06:51:59;;;;;;;2.47;2.30;;;21.30;72.70;;;;;;5060914;28;20686;-73
2021/08/21 06:54:25;;;;;;;3.00;2.30;;;21.40;72.20;;;;;;5064176;28;20271;-76
2021/08/21 06:56:50;;;;;;;2.15;1.70;;;21.40;72.10;;;;;;5065654;28;20306;-76
2021/08/21 06:59:16;;;;;;;2.08;1.98;;;21.50;71.70;;;;;;5058655;28;20199;-76
2021/08/21 07:01:42;;;;;;;2.33;2.22;;;21.60;71.80;;;;;;5061919;28;20186;-76
2021/08/21 07:04:08;;;;;;;2.40;2.30;;;21.70;71.40;;;;;;5066773;28;20190;-72
2021/08/21 07:06:33;;;;;;;2.72;2.63;;;21.80;71.00;;;;;;5061016;28;20668;-75
2021/08/21 07:09:00;;;;;;;1.85;1.75;;;21.90;70.50;;;;;;5067449;28;20946;-75
2021/08/21 07:11:25;;;;;;;2.50;2.40;;;22.00;70.60;;;;;;5051525;28;20187;-75
2021/08/21 07:13:51;;;;;;;2.63;2.53;;;22.10;69.90;;;;;;5062547;28;20195;-76
2021/08/21 07:16:17;;;;;;;3.28;1.95;;;22.20;69.60;;;;;;5067301;28;20175;-73
2021/08/21 07:18:43;;;;;;;1.88;1.85;;;22.30;69.50;;;;;;5069679;28;20252;-73
2021/08/21 07:21:10;;;;;;;2.42;2.20;;;22.30;69.20;;;;;;5071762;28;20239;-72
2021/08/21 07:23:37;;;;;;;2.13;1.90;;;22.50;69.30;;;;;;5067808;28;20174;-77
2021/08/21 07:26:03;;;;;;;2.08;1.98;;;22.50;68.90;;;;;;5067389;28;20680;-76
2021/08/21 07:28:29;;;;;;;1.98;1.88;;;22.60;68.80;;;;;;5069373;28;20193;-76
2021/08/21 07:30:55;;;;;;;2.25;1.90;;;22.70;68.10;;;;;;5071563;28;20184;-76
2021/08/21 07:33:21;;;;;;;2.08;1.95;;;22.80;68.00;;;;;;5072319;28;20183;-76
2021/08/21 07:35:46;;;;;;;1.90;1.80;;;22.90;68.10;;;;;;5072883;28;20588;-76
2021/08/21 07:38:12;;;;;;;2.72;1.65;;;23.00;67.20;;;;;;5070635;28;20214;-76
2021/08/21 07:40:38;;;;;;;1.98;1.98;;;23.00;67.10;;;;;;5070663;28;20861;-76
2021/08/21 07:43:03;;;;;;;2.25;2.10;;;23.10;66.80;;;;;;5069582;28;20193;-77
2021/08/21 07:45:30;;;;;;;2.15;1.70;;;23.10;66.60;;;;;;5063293;28;20203;-76
2021/08/21 07:47:56;;;;;;;2.00;1.90;;;23.20;67.30;;;;;;5066771;28;20239;-76
2021/08/21 07:50:22;;;;;;;2.10;2.10;;;23.30;66.60;;;;;;5065980;28;20720;-76
2021/08/21 07:52:48;;;;;;;3.53;2.33;;;23.40;66.50;;;;;;5062555;28;20218;-76
2021/08/21 07:55:14;;;;;;;2.78;1.75;;;23.50;66.90;;;;;;5065858;28;20258;-77
2021/08/21 07:57:40;;;;;;;1.90;1.90;;;23.60;67.00;;;;;;5066199;28;20712;-75
2021/08/21 08:00:07;;;;;;;2.08;1.98;;;23.70;66.80;;;;;;5061663;28;20182;-75
2021/08/21 08:02:33;;;;;;;2.40;2.20;;;23.80;66.70;;;;;;5066527;28;20664;-76
2021/08/21 08:04:58;;;;;;;2.20;2.10;;;24.00;66.60;;;;;;5066968;28;20183;-75
2021/08/21 08:07:24;;;;;;;2.60;2.22;;;24.10;66.20;;;;;;5056056;28;21011;-72
2021/08/21 08:09:50;;;;;;;1.95;1.95;;;24.30;66.10;;;;;;5068269;28;20191;-75
2021/08/21 08:12:16;;;;;;;2.33;2.22;;;24.40;65.20;;;;;;5071803;28;20255;-73
2021/08/21 08:14:42;;;;;;;1.85;1.67;;;24.60;65.10;;;;;;5068531;28;20198;-74
2021/08/21 08:17:08;;;;;;;2.10;2.10;;;24.70;64.90;;;;;;5066340;28;20211;-74
2021/08/21 08:19:34;;;;;;;1.70;1.70;;;24.90;64.90;;;;;;5067596;28;20239;-73
2021/08/21 08:22:00;;;;;;;2.00;2.00;;;25.00;65.10;;;;;;5068025;28;20747;-72
2021/08/21 08:24:26;;;;;;;1.52;1.52;;;25.20;64.80;;;;;;5062285;28;20215;-75
2021/08/21 08:26:52;;;;;;;2.03;2.03;;;25.30;63.80;;;;;;5069653;28;20219;-74
2021/08/21 08:29:18;;;;;;;2.17;2.10;;;25.50;63.60;;;;;;5065421;28;20190;-75
2021/08/21 08:31:44;;;;;;;1.98;1.90;;;25.60;63.80;;;;;;5064335;28;20189;-75
2021/08/21 08:34:10;;;;;;;3.33;1.73;;;25.70;62.10;;;;;;5070521;28;20184;-75
2021/08/21 08:36:35;;;;;;;2.45;2.35;;;25.80;62.10;;;;;;5072856;28;20939;-75
2021/08/21 08:39:01;;;;;;;1.60;1.58;;;25.90;62.20;;;;;;5074110;28;20648;-75
2021/08/21 08:41:28;;;;;;;3.53;1.73;;;26.00;62.80;;;;;;5068076;28;20191;-75
2021/08/21 08:43:54;;;;;;;2.10;2.10;;;26.10;62.70;;;;;;5076691;28;20182;-74
2021/08/21 08:46:21;;;;;;;2.00;1.90;;;26.30;62.30;;;;;;5070032;28;20187;-74
2021/08/21 08:48:47;;;;;;;1.70;1.70;;;26.40;61.60;;;;;;5075663;28;20198;-75
2021/08/21 08:51:14;;;;;;;1.92;1.83;;;26.50;61.10;;;;;;5068133;28;20180;-74
2021/08/21 08:53:40;;;;;;;1.88;1.88;;;26.60;61.50;;;;;;5066030;28;20241;-74
2021/08/21 08:56:06;;;;;;;2.30;2.20;;;26.70;61.40;;;;;;5065416;28;20186;-74
2021/08/21 08:58:32;;;;;;;3.15;1.90;;;26.80;61.10;;;;;;5066768;28;20253;-78
2021/08/21 09:00:59;;;;;;;2.03;1.92;;;26.80;60.60;;;;;;5063005;28;20210;-78
2021/08/21 09:03:27;;;;;;;2.10;2.00;;;26.90;59.80;;;;;;5061568;28;20231;-79
2021/08/21 09:05:54;;;;;;;2.17;1.83;;;27.10;60.30;;;;;;5067765;28;20244;-77
2021/08/21 09:08:38;;;;;;;2.10;2.10;;;27.20;60.20;;;;;;5066149;28;20693;-77
2021/08/21 09:11:24;;;;;;;5.45;2.38;;;27.40;59.30;;;;;;5065289;28;20229;-79
2021/08/21 09:13:50;;;;;;;1.52;1.52;;;27.60;60.00;;;;;;5066794;28;20214;-78
2021/08/21 09:16:26;;;;;;;2.15;2.05;;;27.80;58.60;;;;;;5062429;28;20172;-77
2021/08/21 09:19:05;;;;;;;2.10;1.90;;;28.10;58.40;;;;;;5067678;28;20266;-78
2021/08/21 09:21:32;;;;;;;2.42;2.25;;;28.40;57.60;;;;;;5064150;28;20185;-76
2021/08/21 09:23:58;;;;;;;3.60;2.00;;;28.80;57.40;;;;;;5065174;28;20282;-75
2021/08/21 09:26:35;;;;;;;2.38;2.20;;;29.20;57.60;;;;;;5068346;28;20178;-74
2021/08/21 09:29:01;;;;;;;1.98;1.98;;;29.70;57.40;;;;;;5069966;28;20175;-84
2021/08/21 09:31:33;;;;;;;2.28;2.00;;;30.10;55.00;;;;;;5070256;28;20198;-82
2021/08/21 09:34:03;;;;;;;1.83;1.83;;;30.50;54.40;;;;;;5062451;28;20183;-78
2021/08/21 09:36:34;;;;;;;2.20;2.05;;;31.10;54.00;;;;;;5068900;28;20266;-75
2021/08/21 09:39:03;;;;;;;1.70;1.70;;;31.90;52.60;;;;;;5070709;28;20236;-77
2021/08/21 09:41:29;;;;;;;2.30;2.20;;;32.60;52.30;;;;;;5079520;28;20170;-75
2021/08/21 09:44:08;;;;;;;3.25;2.50;;;33.40;51.00;;;;;;5076523;28;20202;-75
2021/08/21 09:46:37;;;;;;;2.13;1.70;;;34.20;50.00;;;;;;5072334;28;20205;-82
2021/08/21 09:49:08;;;;;;;1.63;1.63;;;34.80;49.80;;;;;;5071904;28;20179;-80
2021/08/21 09:51:40;;;;;;;2.65;2.10;;;35.40;48.00;;;;;;5070447;28;20549;-82
2021/08/21 09:54:10;;;;;;;1.73;1.63;;;35.80;46.70;;;;;;5065595;28;20275;-82
2021/08/21 09:56:41;;;;;;;2.05;1.83;;;36.40;47.90;;;;;;5065805;28;20213;-78
2021/08/21 09:59:07;;;;;;;2.35;1.95;;;36.80;46.70;;;;;;5062893;28;20577;-81
2021/08/21 10:01:33;;;;;;;2.63;2.30;;;37.10;47.10;;;;;;5070302;28;20177;-80
2021/08/21 10:04:00;;;;;;;2.60;2.60;;;37.40;45.10;;;;;;5069415;28;20182;-76
2021/08/21 10:06:26;;;;;;;2.45;2.35;;;37.70;45.50;;;;;;5062226;28;20191;-76
2021/08/21 10:09:04;;;;;;;3.15;1.85;;;38.00;45.60;;;;;;5072767;28;20181;-75
2021/08/21 10:11:31;;;;;;;2.42;2.05;;;38.40;45.70;;;;;;5064819;28;20832;-80
2021/08/21 10:13:57;;;;;;;2.08;2.03;;;38.60;44.80;;;;;;5062601;28;20190;-79
2021/08/21 10:16:24;;;;;;;2.30;2.30;;;38.40;44.40;;;;;;5072578;28;20182;-76
2021/08/21 10:18:52;;;;;;;2.55;2.55;;;37.70;44.70;;;;;;5077412;28;20578;-75
2021/08/21 10:21:20;;;;;;;2.95;2.30;;;37.10;45.50;;;;;;5067135;28;20198;-75
2021/08/21 10:23:48;;;;;;;2.25;2.25;;;36.80;45.80;;;;;;5065567;28;20239;-77
2021/08/21 10:26:27;;;;;;;2.28;2.20;;;37.10;46.20;;;;;;5069068;28;20179;-77
2021/08/21 10:28:55;;;;;;;2.00;2.00;;;37.70;43.90;;;;;;5074089;28;20866;-77
2021/08/21 10:31:37;;;;;;;2.70;2.60;;;38.40;44.60;;;;;;5068081;28;20188;-77
2021/08/21 10:34:04;;;;;;;2.28;2.17;;;39.20;43.10;;;;;;5076525;28;20186;-77
2021/08/21 10:36:52;;;;;;;2.25;2.25;;;39.80;44.90;;;;;;5073713;28;20186;-77
2021/08/21 10:39:38;;;;;;;2.95;2.85;;;40.30;41.90;;;;;;5071497;28;20269;-77
2021/08/21 10:42:30;;;;;;;2.28;2.28;;;40.90;41.50;;;;;;5070248;28;20618;-78
2021/08/21 10:44:58;;;;;;;2.40;2.25;;;41.20;40.30;;;;;;5071222;28;20173;-77
2021/08/21 10:47:30;;;;;;;2.38;2.17;;;40.90;42.70;;;;;;5070187;28;20181;-78
2021/08/21 10:49:56;;;;;;;2.10;2.10;;;40.50;41.50;;;;;;5074641;28;20193;-78
2021/08/21 10:52:55;;;;;;;2.67;2.47;;;40.50;43.30;;;;;;5073988;28;20177;-77
2021/08/21 10:55:26;;;;;;;2.47;2.40;;;41.00;41.60;;;;;;5067423;28;20181;-78
2021/08/21 10:58:01;;;;;;;2.50;2.50;;;41.70;41.00;;;;;;5063942;28;20262;-78
2021/08/21 11:00:39;;;;;;;3.00;2.80;;;42.00;40.80;;;;;;5069010;28;20178;-78
2021/08/21 11:03:24;;;;;;;2.80;2.70;;;41.80;39.80;;;;;;5070826;28;20212;-78
2021/08/21 11:05:52;;;;;;;2.83;2.80;;;41.30;40.50;;;;;;5073768;28;20247;-78
2021/08/21 11:08:20;;;;;;;2.60;2.60;;;40.90;40.70;;;;;;5068168;28;20183;-78
2021/08/21 11:10:46;;;;;;;2.72;2.63;;;40.60;40.30;;;;;;5072061;28;20212;-78
2021/08/21 11:13:54;;;;;;;2.35;2.35;;;40.20;41.50;;;;;;5062632;28;20195;-78
2021/08/21 11:16:22;;;;;;;2.78;2.67;;;39.60;40.50;;;;;;5068442;28;20186;-78
2021/08/21 11:18:51;;;;;;;3.22;3.13;;;39.40;42.60;;;;;;5070625;28;20214;-77
2021/08/21 11:21:37;;;;;;;2.92;2.78;;;39.70;43.20;;;;;;5067319;28;20183;-77
2021/08/21 11:24:29;;;;;;;2.65;2.55;;;40.50;40.40;;;;;;5063648;28;20239;-77
2021/08/21 11:27:22;;;;;;;3.08;2.97;;;41.20;40.20;;;;;;5064975;28;20174;-78
2021/08/21 11:32:32;;;;;;;3.17;2.97;;;43.20;37.90;;;;;;5068187;28;20182;-78
2021/08/21 11:34:58;;;;;;;2.92;2.92;;;43.60;39.70;;;;;;5071296;28;20570;-78
2021/08/21 11:37:28;;;;;;;3.28;3.28;;;43.90;37.50;;;;;;5065394;28;20628;-75
2021/08/21 11:39:55;;;;;;;4.40;3.40;;;44.20;38.10;;;;;;5062947;28;20171;-78
2021/08/21 11:42:21;;;;;;;3.50;3.40;;;44.30;39.20;;;;;;5068109;28;20293;-78
2021/08/21 11:44:55;;;;;;;3.08;3.08;;;44.10;39.00;;;;;;5069923;28;20260;-78
2021/08/21 11:47:32;;;;;;;3.90;3.80;;;43.70;38.50;;;;;;5062561;28;20193;-78
2021/08/21 11:49:58;;;;;;;3.63;3.38;;;43.00;37.80;;;;;;5067468;28;20207;-79
2021/08/21 11:52:24;;;;;;;3.70;3.40;;;42.30;41.40;;;;;;5065246;28;21498;-79
2021/08/21 11:54:52;;;;;;;4.00;3.90;;;41.90;39.70;;;;;;5065788;28;20173;-76
2021/08/21 11:57:18;;;;;;;4.85;3.80;;;41.30;40.60;;;;;;5073066;28;20206;-78
2021/08/21 11:59:43;;;;;;;3.42;3.33;;;40.80;41.40;;;;;;5064521;28;20188;-75
2021/08/21 12:02:11;;;;;;;4.30;4.00;;;40.60;42.00;;;;;;5067886;28;20675;-79
2021/08/21 12:04:53;;;;;;;3.72;3.63;;;40.90;41.90;;;;;;5073738;28;20197;-78
2021/08/21 12:07:34;;;;;;;4.05;3.47;;;41.50;39.90;;;;;;5073494;28;20190;-78
2021/08/21 12:10:00;;;;;;;3.58;3.47;;;42.20;39.60;;;;;;5074069;28;20182;-78
2021/08/21 12:12:33;;;;;;;4.47;4.10;;;42.70;38.80;;;;;;5073911;28;20744;-78
2021/08/21 12:15:00;;;;;;;3.88;3.78;;;42.80;39.10;;;;;;5073188;28;20212;-78
2021/08/21 12:17:28;;;;;;;4.05;3.95;;;42.30;40.50;;;;;;5078341;28;20201;-78
2021/08/21 12:19:54;;;;;;;3.60;3.50;;;41.80;40.00;;;;;;5074324;28;20220;-78
2021/08/21 12:22:21;;;;;;;3.58;3.45;;;41.20;41.00;;;;;;5070449;28;20257;-78
2021/08/21 12:24:54;;;;;;;4.03;3.58;;;40.50;42.10;;;;;;5075653;28;20194;-78
2021/08/21 12:27:28;;;;;;;3.80;3.10;;;39.80;42.00;;;;;;5074411;28;20198;-78
2021/08/21 12:30:19;;;;;;;4.50;4.10;;;39.00;43.30;;;;;;5069278;28;20289;-78
2021/08/21 12:32:45;;;;;;;3.05;2.85;;;38.20;42.60;;;;;;5070851;28;20216;-78
2021/08/21 12:35:19;;;;;;;3.72;3.63;;;37.50;44.10;;;;;;5072573;28;20206;-78
2021/08/21 12:38:01;;;;;;;4.05;3.72;;;36.80;44.60;;;;;;5073071;28;20207;-78
2021/08/21 12:40:26;;;;;;;3.65;3.55;;;36.00;45.80;;;;;;5070108;28;20185;-78
2021/08/21 12:43:04;;;;;;;3.88;3.78;;;35.50;46.00;;;;;;5067657;28;20200;-78
2021/08/21 12:45:31;;;;;;;4.20;4.00;;;35.10;46.10;;;;;;5070374;28;20691;-78
2021/08/21 12:48:07;;;;;;;3.83;3.72;;;34.70;46.70;;;;;;5071533;28;20189;-78
2021/08/21 12:50:40;;;;;;;4.20;4.00;;;34.40;46.40;;;;;;5069074;28;20204;-78
2021/08/21 12:53:06;;;;;;;3.80;3.67;;;34.20;47.10;;;;;;5073598;28;20193;-78
2021/08/21 12:55:32;;;;;;;4.32;4.22;;;34.10;47.50;;;;;;5069605;28;20173;-78